Time;durP1;ratioP1;P1;durP2;ratioP2;P2;SDS_P1;SDS_P2;PMS_P1;PMS_P2;Temp;Humidity;BMP_temperature;BMP_pressure;BME280_temperature;BME280_humidity;BME280_pressure;Samples;Min_cycle;Max_cycle;Signal;HPM_P1;HPM_P2
2022/08/20 00:00:13;;;;;;;4.63;4.23;;;;;;;;;;5091831;28;20465;-74
2022/08/20 00:02:50;;;;;;;5.03;4.60;;;;;;;;;;5092394;28;20477;-74
2022/08/20 00:05:20;;;;;;;7.47;4.33;;;;;;;;;;5079740;28;20433;-74
2022/08/20 00:07:47;;;;;;;4.47;4.07;;;;;;;;;;5079369;28;20474;-75
2022/08/20 00:10:14;;;;;;;4.23;3.93;;;;;;;;;;5092318;28;20535;-74
2022/08/20 00:12:44;;;;;;;4.50;4.20;;;;;;;;;;5072247;28;20484;-74
2022/08/20 00:15:12;;;;;;;4.97;4.57;;;;;;;;;;5074396;28;20973;-74
2022/08/20 00:17:39;;;;;;;7.40;4.60;;;;;;;;;;5067851;28;20829;-74
2022/08/20 00:20:08;;;;;;;4.60;4.20;;;;;;;;;;5085364;28;20966;-74
2022/08/20 00:22:34;;;;;;;4.83;4.33;;;;;;;;;;5081398;28;20427;-75
2022/08/20 00:25:01;;;;;;;4.83;4.43;;;;;;;;;;5077157;28;20470;-74
2022/08/20 00:27:28;;;;;;;4.73;3.80;;;;;;;;;;5072259;28;20429;-74
2022/08/20 00:29:55;;;;;;;5.33;4.93;;;;;;;;;;5069157;28;20588;-74
2022/08/20 00:32:21;;;;;;;4.93;4.53;;;;;;;;;;5063679;28;20432;-74
2022/08/20 00:34:48;;;;;;;4.57;4.20;;;;;;;;;;5069449;28;20518;-74
2022/08/20 00:37:14;;;;;;;4.77;4.40;;;;;;;;;;5066583;28;20494;-74
2022/08/20 00:39:41;;;;;;;5.33;4.93;;;;;;;;;;5085522;28;20455;-74
2022/08/20 00:42:08;;;;;;;5.00;4.50;;;;;;;;;;5080021;28;20531;-75
2022/08/20 00:44:34;;;;;;;4.83;4.43;;;;;;;;;;5070536;28;20420;-74
2022/08/20 00:47:01;;;;;;;4.93;4.43;;;;;;;;;;5082956;28;20509;-74
2022/08/20 00:49:29;;;;;;;5.50;5.00;;;;;;;;;;5084820;28;20457;-74
2022/08/20 00:52:02;;;;;;;5.50;5.00;;;;;;;;;;5061624;28;20507;-74
2022/08/20 00:54:32;;;;;;;4.90;4.40;;;;;;;;;;5095627;28;20449;-74
2022/08/20 00:57:02;;;;;;;4.90;4.50;;;;;;;;;;5074355;28;20473;-74
2022/08/20 00:59:31;;;;;;;4.63;4.17;;;;;;;;;;5077655;28;20507;-74
2022/08/20 01:01:59;;;;;;;7.20;5.03;;;;;;;;;;5081035;28;20434;-74
2022/08/20 01:04:27;;;;;;;5.13;4.60;;;;;;;;;;5085158;28;20520;-74
2022/08/20 01:06:54;;;;;;;8.87;5.00;;;;;;;;;;5085437;28;20453;-74
2022/08/20 01:09:21;;;;;;;5.93;5.43;;;;;;;;;;5084968;28;20460;-74
2022/08/20 01:12:08;;;;;;;4.87;4.47;;;;;;;;;;5071545;28;20464;-74
2022/08/20 01:17:04;;;;;;;5.37;4.97;;;;;;;;;;5084557;28;20813;-74
2022/08/20 01:19:41;;;;;;;5.53;5.10;;;;;;;;;;5087763;28;20455;-74
2022/08/20 01:25:08;;;;;;;5.50;4.80;;;;;;;;;;5077197;28;20445;-74
2022/08/20 01:27:36;;;;;;;5.80;5.33;;;;;;;;;;5095183;28;20443;-74
2022/08/20 01:30:08;;;;;;;5.07;4.70;;;;;;;;;;5089327;28;20440;-75
2022/08/20 01:32:35;;;;;;;5.33;4.90;;;;;;;;;;5071328;28;20539;-75
2022/08/20 01:35:02;;;;;;;5.23;4.67;;;;;;;;;;5070897;28;20984;-74
2022/08/20 01:37:29;;;;;;;5.63;4.50;;;;;;;;;;5070681;28;20428;-74
2022/08/20 01:39:57;;;;;;;5.57;5.07;;;;;;;;;;5066432;28;20470;-75
2022/08/20 01:42:30;;;;;;;5.93;5.37;;;;;;;;;;5073307;28;20472;-74
2022/08/20 01:44:57;;;;;;;5.77;5.27;;;;;;;;;;5051562;28;20475;-75
2022/08/20 01:47:27;;;;;;;5.43;5.03;;;;;;;;;;5074211;28;20424;-75
2022/08/20 01:49:58;;;;;;;5.30;4.90;;;;;;;;;;5064129;28;20503;-75
2022/08/20 01:52:25;;;;;;;4.93;4.50;;;;;;;;;;5078526;28;20424;-74
2022/08/20 01:54:52;;;;;;;5.60;5.07;;;;;;;;;;5073649;28;20455;-75
2022/08/20 01:57:19;;;;;;;4.73;4.33;;;;;;;;;;5076849;28;20445;-75
2022/08/20 01:59:48;;;;;;;5.47;4.97;;;;;;;;;;5071624;28;20536;-75
2022/08/20 02:02:15;;;;;;;5.30;4.80;;;;;;;;;;5073077;28;20470;-75
2022/08/20 02:04:41;;;;;;;6.27;5.70;;;;;;;;;;5090516;28;20527;-75
2022/08/20 02:07:13;;;;;;;6.60;6.00;;;;;;;;;;5058763;28;20441;-75
2022/08/20 02:09:41;;;;;;;6.03;5.63;;;;;;;;;;5081000;28;20451;-75
2022/08/20 02:12:08;;;;;;;5.97;5.57;;;;;;;;;;5076521;28;20499;-75
2022/08/20 02:14:38;;;;;;;6.20;5.70;;;;;;;;;;5082704;28;20984;-75
2022/08/20 02:17:06;;;;;;;5.60;5.20;;;;;;;;;;5057085;28;20949;-75
2022/08/20 02:19:37;;;;;;;5.40;4.90;;;;;;;;;;5082591;28;20508;-75
2022/08/20 02:22:24;;;;;;;6.90;6.00;;;;;;;;;;5066398;28;20437;-75
2022/08/20 02:24:51;;;;;;;7.30;6.57;;;;;;;;;;5050535;28;20468;-75
2022/08/20 02:27:18;;;;;;;7.00;6.30;;;;;;;;;;5070212;28;20799;-75
2022/08/20 02:29:45;;;;;;;6.57;6.00;;;;;;;;;;5083508;28;20477;-76
2022/08/20 02:32:12;;;;;;;5.70;5.20;;;;;;;;;;5077571;28;20443;-76
2022/08/20 02:35:01;;;;;;;7.80;5.47;;;;;;;;;;5076760;28;20483;-75
2022/08/20 02:37:28;;;;;;;6.60;5.73;;;;;;;;;;5058965;28;20469;-75
2022/08/20 02:39:55;;;;;;;6.70;6.20;;;;;;;;;;5082451;28;20518;-75
2022/08/20 02:42:21;;;;;;;7.00;6.50;;;;;;;;;;5082441;28;20515;-76
2022/08/20 02:44:48;;;;;;;8.33;7.63;;;;;;;;;;5060195;28;20427;-76
2022/08/20 02:47:15;;;;;;;7.63;6.93;;;;;;;;;;5089902;28;20448;-75
2022/08/20 02:49:42;;;;;;;8.00;7.30;;;;;;;;;;5077754;28;20446;-76
2022/08/20 02:52:09;;;;;;;6.50;6.00;;;;;;;;;;5058992;28;20856;-76
2022/08/20 02:54:35;;;;;;;6.93;6.20;;;;;;;;;;5061287;28;20534;-76
2022/08/20 02:57:03;;;;;;;6.90;6.30;;;;;;;;;;5081269;28;20924;-76
2022/08/20 02:59:29;;;;;;;7.70;6.90;;;;;;;;;;5060054;28;20462;-76
2022/08/20 03:01:56;;;;;;;8.43;7.53;;;;;;;;;;5055706;28;20479;-76
2022/08/20 03:04:26;;;;;;;8.20;6.90;;;;;;;;;;5071233;28;20413;-77
2022/08/20 03:06:52;;;;;;;6.50;5.90;;;;;;;;;;5082390;28;20511;-76
2022/08/20 03:09:19;;;;;;;7.27;6.57;;;;;;;;;;5066870;28;20863;-76
2022/08/20 03:11:46;;;;;;;8.07;7.20;;;;;;;;;;5082600;28;20927;-76
2022/08/20 03:14:12;;;;;;;8.93;7.27;;;;;;;;;;5086537;28;20431;-76
2022/08/20 03:16:39;;;;;;;7.77;7.17;;;;;;;;;;5090687;28;20507;-76
2022/08/20 03:19:05;;;;;;;7.90;7.30;;;;;;;;;;5084971;28;20575;-76
2022/08/20 03:21:32;;;;;;;17.03;7.50;;;;;;;;;;5073805;28;20523;-76
2022/08/20 03:23:58;;;;;;;8.13;7.20;;;;;;;;;;5087350;28;20405;-76
2022/08/20 03:26:25;;;;;;;7.40;6.80;;;;;;;;;;5098978;28;20433;-76
2022/08/20 03:28:51;;;;;;;7.07;6.57;;;;;;;;;;5074120;28;20488;-75
2022/08/20 03:31:18;;;;;;;8.07;7.33;;;;;;;;;;5095269;28;20440;-76
2022/08/20 03:33:44;;;;;;;8.27;7.50;;;;;;;;;;5089888;28;20462;-76
2022/08/20 03:36:19;;;;;;;6.83;6.30;;;;;;;;;;5074736;28;20498;-76
2022/08/20 03:38:53;;;;;;;8.20;6.93;;;;;;;;;;5084105;28;20444;-76
2022/08/20 03:41:19;;;;;;;8.67;7.97;;;;;;;;;;5086905;28;20424;-75
2022/08/20 03:43:46;;;;;;;8.37;7.60;;;;;;;;;;5084307;28;20427;-76
2022/08/20 03:46:12;;;;;;;9.03;8.23;;;;;;;;;;5079486;28;20804;-75
2022/08/20 03:48:52;;;;;;;7.97;7.37;;;;;;;;;;5081908;28;20971;-75
2022/08/20 03:51:29;;;;;;;9.30;8.57;;;;;;;;;;5082670;28;20424;-75
2022/08/20 03:53:56;;;;;;;8.93;8.13;;;;;;;;;;5067146;28;20436;-76
2022/08/20 03:56:23;;;;;;;10.97;8.00;;;;;;;;;;5082999;28;20503;-76
2022/08/20 03:58:49;;;;;;;8.60;7.13;;;;;;;;;;5079761;28;20447;-75
2022/08/20 04:01:16;;;;;;;9.20;8.50;;;;;;;;;;5074504;28;20433;-75
2022/08/20 04:04:03;;;;;;;8.10;7.40;;;;;;;;;;5082967;28;20425;-75
2022/08/20 04:06:29;;;;;;;10.37;8.90;;;;;;;;;;5083886;28;20428;-76
2022/08/20 04:08:56;;;;;;;8.87;7.50;;;;;;;;;;5068742;28;20507;-76
2022/08/20 04:11:23;;;;;;;7.23;6.63;;;;;;;;;;5055875;28;20498;-76
2022/08/20 04:13:49;;;;;;;9.90;8.70;;;;;;;;;;5076715;28;20527;-76
2022/08/20 04:16:17;;;;;;;7.43;6.83;;;;;;;;;;5062545;28;20809;-75
2022/08/20 04:18:46;;;;;;;8.90;8.20;;;;;;;;;;5088863;28;20464;-75
2022/08/20 04:21:28;;;;;;;9.17;8.30;;;;;;;;;;5059993;28;20520;-75
2022/08/20 04:24:01;;;;;;;8.60;7.70;;;;;;;;;;5086722;28;20997;-75
2022/08/20 04:26:27;;;;;;;11.30;8.67;;;;;;;;;;5087104;28;20435;-75
2022/08/20 04:28:54;;;;;;;8.30;7.60;;;;;;;;;;5062443;28;20493;-75
2022/08/20 04:31:23;;;;;;;10.30;9.30;;;;;;;;;;5077786;28;20489;-75
2022/08/20 04:33:51;;;;;;;8.80;8.00;;;;;;;;;;5071834;28;20436;-75
2022/08/20 04:36:17;;;;;;;8.77;7.93;;;;;;;;;;5085468;28;20455;-75
2022/08/20 04:38:44;;;;;;;9.20;8.30;;;;;;;;;;5079568;28;20474;-75
2022/08/20 04:41:20;;;;;;;12.73;9.10;;;;;;;;;;5078700;28;20901;-75
2022/08/20 04:43:50;;;;;;;8.93;8.10;;;;;;;;;;5082731;28;20795;-75
2022/08/20 04:46:17;;;;;;;8.80;8.00;;;;;;;;;;5078189;28;20560;-76
2022/08/20 04:48:43;;;;;;;9.50;8.60;;;;;;;;;;5065320;28;20455;-75
2022/08/20 04:51:15;;;;;;;10.23;7.60;;;;;;;;;;5069373;28;20436;-75
2022/08/20 04:53:44;;;;;;;9.60;8.70;;;;;;;;;;5082738;28;20423;-75
2022/08/20 04:56:22;;;;;;;9.40;8.60;;;;;;;;;;5078553;28;20458;-75
2022/08/20 04:58:49;;;;;;;9.77;8.80;;;;;;;;;;5078913;28;20471;-75
2022/08/20 05:01:16;;;;;;;11.47;10.30;;;;;;;;;;5080610;28;20470;-76
2022/08/20 05:03:43;;;;;;;9.87;8.97;;;;;;;;;;5086473;28;20455;-76
2022/08/20 05:06:10;;;;;;;10.60;9.53;;;;;;;;;;5067868;28;20516;-75
2022/08/20 05:08:37;;;;;;;11.27;10.10;;;;;;;;;;5068138;28;20995;-75
2022/08/20 05:11:04;;;;;;;11.10;9.73;;;;;;;;;;5071077;28;20995;-75
2022/08/20 05:13:51;;;;;;;11.63;10.43;;;;;;;;;;5074823;28;20447;-75
2022/08/20 05:16:18;;;;;;;14.00;10.17;;;;;;;;;;5081257;28;20456;-75
2022/08/20 05:18:45;;;;;;;10.23;9.20;;;;;;;;;;5084318;28;20867;-75
2022/08/20 05:21:17;;;;;;;12.17;10.97;;;;;;;;;;5063891;28;20974;-75
2022/08/20 05:23:44;;;;;;;10.93;9.77;;;;;;;;;;5084796;28;20526;-75
2022/08/20 05:26:11;;;;;;;10.97;10.03;;;;;;;;;;5059739;28;20487;-76
2022/08/20 05:28:38;;;;;;;12.03;10.73;;;;;;;;;;5082695;28;20552;-76
2022/08/20 05:31:24;;;;;;;10.80;9.80;;;;;;;;;;5084626;28;20435;-76
2022/08/20 05:34:00;;;;;;;11.00;10.10;;;;;;;;;;5080218;28;20439;-75
2022/08/20 05:36:27;;;;;;;12.23;10.97;;;;;;;;;;5060870;28;20464;-75
2022/08/20 05:38:53;;;;;;;13.70;12.50;;;;;;;;;;5080903;28;20456;-75
2022/08/20 05:41:20;;;;;;;13.43;12.23;;;;;;;;;;5084290;28;20431;-76
2022/08/20 05:43:56;;;;;;;14.73;13.40;;;;;;;;;;5071788;28;20865;-76
2022/08/20 05:46:22;;;;;;;12.80;11.23;;;;;;;;;;5084408;28;20464;-75
2022/08/20 05:48:49;;;;;;;13.40;12.20;;;;;;;;;;5076041;28;20965;-75
2022/08/20 05:51:16;;;;;;;11.87;10.87;;;;;;;;;;5081939;28;20962;-76
2022/08/20 05:53:42;;;;;;;13.67;12.10;;;;;;;;;;5081803;28;20431;-76
2022/08/20 05:56:12;;;;;;;12.90;11.80;;;;;;;;;;5060826;28;20535;-76
2022/08/20 05:58:38;;;;;;;13.83;12.53;;;;;;;;;;5079050;28;20444;-75
2022/08/20 06:01:05;;;;;;;12.40;11.30;;;;;;;;;;5077332;28;20501;-75
2022/08/20 06:06:17;;;;;;;16.47;12.70;;;;;;;;;;5079526;28;20409;-75
2022/08/20 06:09:04;;;;;;;15.30;12.13;;;;;;;;;;5098557;28;20472;-75
2022/08/20 06:11:31;;;;;;;13.77;12.47;;;;;;;;;;5079014;28;20920;-75
2022/08/20 06:14:03;;;;;;;13.23;11.97;;;;;;;;;;5083685;28;20475;-74
2022/08/20 06:16:29;;;;;;;12.57;11.57;;;;;;;;;;5081970;28;20544;-75
2022/08/20 06:18:56;;;;;;;13.67;12.47;;;;;;;;;;5059796;28;20478;-75
2022/08/20 06:21:23;;;;;;;11.70;10.70;;;;;;;;;;5077952;28;20459;-75
2022/08/20 06:23:50;;;;;;;13.30;12.00;;;;;;;;;;5070090;28;20938;-75
2022/08/20 06:26:26;;;;;;;13.33;12.03;;;;;;;;;;5071216;28;20441;-75
2022/08/20 06:28:57;;;;;;;12.67;11.47;;;;;;;;;;5069658;28;20826;-75
2022/08/20 06:31:23;;;;;;;13.10;11.70;;;;;;;;;;5073567;28;20474;-75
2022/08/20 06:33:50;;;;;;;15.67;14.13;;;;;;;;;;5061068;28;20846;-75
2022/08/20 06:36:16;;;;;;;13.47;12.27;;;;;;;;;;5076562;28;20506;-75
2022/08/20 06:38:45;;;;;;;13.27;11.87;;;;;;;;;;5073252;28;20455;-75
2022/08/20 06:41:12;;;;;;;12.83;11.63;;;;;;;;;;5090407;28;20867;-75
2022/08/20 06:43:38;;;;;;;13.50;12.30;;;;;;;;;;5078703;28;21289;-75
2022/08/20 06:46:05;;;;;;;14.63;13.10;;;;;;;;;;5095163;28;20470;-75
2022/08/20 06:48:32;;;;;;;13.00;11.67;;;;;;;;;;5069980;28;20483;-75
2022/08/20 06:51:00;;;;;;;12.50;11.30;;;;;;;;;;5069840;28;20856;-75
2022/08/20 06:53:27;;;;;;;12.63;11.43;;;;;;;;;;5078291;28;20431;-75
2022/08/20 06:55:55;;;;;;;12.83;11.70;;;;;;;;;;5061403;28;20992;-75
2022/08/20 06:58:22;;;;;;;12.40;11.30;;;;;;;;;;5075185;28;20867;-75
2022/08/20 07:01:08;;;;;;;13.23;12.10;;;;;;;;;;5078859;28;20428;-75
2022/08/20 07:03:37;;;;;;;13.07;11.97;;;;;;;;;;5081564;28;20421;-75
2022/08/20 07:06:03;;;;;;;12.47;11.27;;;;;;;;;;5081211;28;20423;-75
2022/08/20 07:08:30;;;;;;;13.70;12.50;;;;;;;;;;5063917;28;20451;-75
2022/08/20 07:10:58;;;;;;;12.00;10.90;;;;;;;;;;5086960;28;20470;-74
2022/08/20 07:13:24;;;;;;;12.57;11.37;;;;;;;;;;5073638;28;20482;-75
2022/08/20 07:15:52;;;;;;;12.50;11.30;;;;;;;;;;5074978;28;20849;-75
2022/08/20 07:18:20;;;;;;;12.37;11.07;;;;;;;;;;5086728;28;20470;-75
2022/08/20 07:20:55;;;;;;;16.70;12.47;;;;;;;;;;5066250;28;20452;-75
2022/08/20 07:23:23;;;;;;;12.50;11.30;;;;;;;;;;5070465;28;20866;-77
2022/08/20 07:25:50;;;;;;;13.27;11.90;;;;;;;;;;5083320;28;20849;-75
2022/08/20 07:28:21;;;;;;;13.37;12.03;;;;;;;;;;5080089;28;20424;-75
2022/08/20 07:33:40;;;;;;;12.37;11.13;;;;;;;;;;5079197;28;20813;-75
2022/08/20 07:36:07;;;;;;;9.00;8.27;;;;;;;;;;5080261;28;21053;-75
2022/08/20 07:38:34;;;;;;;11.50;10.40;;;;;;;;;;5086736;28;20444;-75
2022/08/20 07:41:06;;;;;;;13.13;11.93;;;;;;;;;;5086829;28;20449;-75
2022/08/20 07:43:33;;;;;;;13.80;11.93;;;;;;;;;;5073288;28;20481;-75
2022/08/20 07:46:01;;;;;;;12.90;11.70;;;;;;;;;;5075229;28;20510;-75
2022/08/20 07:48:29;;;;;;;13.33;12.03;;;;;;;;;;5086742;28;20816;-75
2022/08/20 07:50:59;;;;;;;12.63;11.37;;;;;;;;;;5087589;28;20443;-76
2022/08/20 07:53:26;;;;;;;10.90;10.00;;;;;;;;;;5073875;28;20464;-75
2022/08/20 07:55:56;;;;;;;12.23;11.00;;;;;;;;;;5075105;28;20460;-75
2022/08/20 07:58:25;;;;;;;14.50;13.20;;;;;;;;;;5076199;28;20451;-75
2022/08/20 08:00:58;;;;;;;11.87;10.67;;;;;;;;;;5073081;28;20456;-75
2022/08/20 08:03:27;;;;;;;11.33;10.30;;;;;;;;;;5068985;28;20436;-75
2022/08/20 08:06:13;;;;;;;12.03;10.83;;;;;;;;;;5067074;28;20424;-75
2022/08/20 08:08:42;;;;;;;11.10;10.10;;;;;;;;;;5067576;28;20458;-75
2022/08/20 08:11:09;;;;;;;11.17;10.17;;;;;;;;;;5058935;28;21108;-75
2022/08/20 08:13:38;;;;;;;12.83;11.53;;;;;;;;;;5077881;28;20440;-75
2022/08/20 08:16:06;;;;;;;11.23;10.23;;;;;;;;;;5057490;28;20527;-74
2022/08/20 08:18:43;;;;;;;10.07;9.17;;;;;;;;;;5076479;28;20498;-75
2022/08/20 08:21:11;;;;;;;10.73;9.63;;;;;;;;;;5093186;28;20473;-76
2022/08/20 08:23:43;;;;;;;9.93;9.00;;;;;;;;;;5077805;28;20424;-75
2022/08/20 08:26:14;;;;;;;11.27;10.27;;;;;;;;;;5078785;28;20913;-76
2022/08/20 08:28:44;;;;;;;10.60;9.37;;;;;;;;;;5079876;28;20470;-74
2022/08/20 08:31:11;;;;;;;11.67;8.97;;;;;;;;;;5076795;28;20792;-74
2022/08/20 08:33:39;;;;;;;9.50;8.70;;;;;;;;;;5091913;28;20458;-74
2022/08/20 08:36:08;;;;;;;11.83;10.83;;;;;;;;;;5094900;28;20460;-74
2022/08/20 08:38:36;;;;;;;10.87;9.93;;;;;;;;;;5086289;28;20449;-74
2022/08/20 08:41:28;;;;;;;11.20;10.20;;;;;;;;;;5088471;28;20486;-75
2022/08/20 08:43:58;;;;;;;13.07;11.97;;;;;;;;;;5080241;28;20436;-74
2022/08/20 08:46:26;;;;;;;12.70;11.60;;;;;;;;;;5108837;28;20469;-75
2022/08/20 08:48:55;;;;;;;12.27;11.23;;;;;;;;;;5090718;28;20450;-76
2022/08/20 08:51:32;;;;;;;12.80;11.57;;;;;;;;;;5088494;28;20463;-76
2022/08/20 08:53:59;;;;;;;14.20;12.97;;;;;;;;;;5098513;28;20795;-75
2022/08/20 08:56:32;;;;;;;13.70;12.43;;;;;;;;;;5079223;28;20453;-76
2022/08/20 08:59:03;;;;;;;16.40;15.00;;;;;;;;;;5069486;28;20453;-75
2022/08/20 09:01:31;;;;;;;17.40;15.80;;;;;;;;;;5064252;28;20444;-75
2022/08/20 09:04:19;;;;;;;14.43;13.03;;;;;;;;;;5087782;28;20416;-75
2022/08/20 09:06:53;;;;;;;13.93;12.57;;;;;;;;;;5089264;28;20440;-75
2022/08/20 09:09:20;;;;;;;14.87;13.37;;;;;;;;;;5069118;28;20460;-75
2022/08/20 09:11:49;;;;;;;14.37;13.03;;;;;;;;;;5104286;28;20439;-75
2022/08/20 09:14:15;;;;;;;15.30;14.00;;;;;;;;;;5106278;28;20424;-76
2022/08/20 09:16:42;;;;;;;16.23;14.83;;;;;;;;;;5099278;28;20481;-76
2022/08/20 09:19:18;;;;;;;15.10;13.80;;;;;;;;;;5083215;28;20505;-76
2022/08/20 09:21:45;;;;;;;16.60;15.10;;;;;;;;;;5073202;28;20471;-76
2022/08/20 09:24:12;;;;;;;17.10;15.10;;;;;;;;;;5072518;28;20490;-76
2022/08/20 09:26:38;;;;;;;17.83;16.17;;;;;;;;;;5070806;28;20429;-76
2022/08/20 09:29:05;;;;;;;16.73;14.87;;;;;;;;;;5080822;28;20866;-76
2022/08/20 09:31:31;;;;;;;18.47;16.57;;;;;;;;;;5091352;28;20424;-76
2022/08/20 09:33:58;;;;;;;18.57;16.87;;;;;;;;;;5092573;28;20442;-76
2022/08/20 09:36:25;;;;;;;21.40;15.03;;;;;;;;;;5075517;28;20460;-76
2022/08/20 09:38:58;;;;;;;17.60;15.90;;;;;;;;;;5071721;28;20433;-76
2022/08/20 09:41:25;;;;;;;17.53;15.70;;;;;;;;;;5072119;28;20431;-76
2022/08/20 09:43:51;;;;;;;17.67;16.07;;;;;;;;;;5072254;28;20485;-76
2022/08/20 09:46:18;;;;;;;19.23;17.37;;;;;;;;;;5055809;28;20472;-76
2022/08/20 09:48:52;;;;;;;19.93;16.33;;;;;;;;;;5073591;28;20817;-75
2022/08/20 09:51:19;;;;;;;18.63;16.30;;;;;;;;;;5078256;28;20861;-75
2022/08/20 09:53:47;;;;;;;18.73;16.93;;;;;;;;;;5090868;28;20432;-75
2022/08/20 09:56:14;;;;;;;19.07;17.37;;;;;;;;;;5090714;28;20427;-75
2022/08/20 09:58:40;;;;;;;18.33;16.43;;;;;;;;;;5092218;28;20506;-75
2022/08/20 10:01:08;;;;;;;18.67;16.73;;;;;;;;;;5076026;28;20478;-75
2022/08/20 10:03:42;;;;;;;19.37;17.57;;;;;;;;;;5072591;28;20413;-76
2022/08/20 10:06:10;;;;;;;20.43;18.53;;;;;;;;;;5070326;28;20520;-76
2022/08/20 10:08:37;;;;;;;17.80;15.90;;;;;;;;;;5074984;28;20809;-76
2022/08/20 10:11:03;;;;;;;17.73;16.00;;;;;;;;;;5079942;28;20433;-75
2022/08/20 10:13:30;;;;;;;20.17;18.17;;;;;;;;;;5065965;28;20486;-75
2022/08/20 10:15:57;;;;;;;19.27;17.30;;;;;;;;;;5070237;28;20478;-75
2022/08/20 10:18:23;;;;;;;20.10;18.30;;;;;;;;;;5069964;28;20479;-75
2022/08/20 10:20:50;;;;;;;19.40;17.60;;;;;;;;;;5071610;28;20951;-75
2022/08/20 10:23:16;;;;;;;19.07;17.20;;;;;;;;;;5071429;28;20420;-75
2022/08/20 10:25:43;;;;;;;18.90;17.00;;;;;;;;;;5071543;28;20494;-75
2022/08/20 10:28:10;;;;;;;18.20;16.57;;;;;;;;;;5060099;28;20429;-80
2022/08/20 10:30:37;;;;;;;17.93;16.33;;;;;;;;;;5085514;28;20448;-77
2022/08/20 10:33:03;;;;;;;17.67;15.43;;;;;;;;;;5071954;28;20429;-78
2022/08/20 10:35:30;;;;;;;20.40;18.23;;;;;;;;;;5073920;28;20509;-78
2022/08/20 10:37:56;;;;;;;18.83;16.30;;;;;;;;;;5073935;28;20459;-78
2022/08/20 10:40:23;;;;;;;17.40;15.80;;;;;;;;;;5075140;28;20527;-78
2022/08/20 10:42:50;;;;;;;17.83;16.00;;;;;;;;;;5075024;28;20443;-78
2022/08/20 10:45:17;;;;;;;18.53;16.83;;;;;;;;;;5092052;28;20432;-78
2022/08/20 10:47:43;;;;;;;16.23;14.83;;;;;;;;;;5077686;28;20920;-78
2022/08/20 10:50:13;;;;;;;17.67;16.13;;;;;;;;;;5062474;28;20528;-77
2022/08/20 10:52:39;;;;;;;18.87;17.07;;;;;;;;;;5079138;28;20447;-77
2022/08/20 10:55:06;;;;;;;17.83;16.20;;;;;;;;;;5060892;28;20483;-77
2022/08/20 10:57:33;;;;;;;16.47;15.00;;;;;;;;;;5082170;28;20453;-77
2022/08/20 10:59:59;;;;;;;18.60;16.93;;;;;;;;;;5069639;28;20513;-77
2022/08/20 11:02:26;;;;;;;17.47;15.40;;;;;;;;;;5086291;28;20452;-77
2022/08/20 11:04:53;;;;;;;15.90;14.50;;;;;;;;;;5069865;28;20486;-77
2022/08/20 11:07:40;;;;;;;16.43;14.83;;;;;;;;;;5070943;28;20436;-77
2022/08/20 11:10:22;;;;;;;17.43;15.83;;;;;;;;;;5058365;28;20461;-77
2022/08/20 11:12:49;;;;;;;31.00;17.23;;;;;;;;;;5071100;28;20841;-77
2022/08/20 11:15:15;;;;;;;18.13;16.47;;;;;;;;;;5069297;28;20987;-77
2022/08/20 11:17:43;;;;;;;17.73;16.03;;;;;;;;;;5052837;28;20545;-77
2022/08/20 11:20:11;;;;;;;15.80;14.40;;;;;;;;;;5053231;28;20466;-76
2022/08/20 11:22:37;;;;;;;17.70;16.07;;;;;;;;;;5069653;28;20429;-77
2022/08/20 11:25:05;;;;;;;18.00;16.30;;;;;;;;;;5073405;28;20456;-77
2022/08/20 11:27:33;;;;;;;17.27;15.43;;;;;;;;;;5081092;28;20497;-77
2022/08/20 11:29:59;;;;;;;17.77;16.10;;;;;;;;;;5058113;28;20465;-77
2022/08/20 11:32:26;;;;;;;16.37;14.77;;;;;;;;;;5080466;28;20448;-77
2022/08/20 11:34:53;;;;;;;19.00;17.30;;;;;;;;;;5052853;28;20437;-77
2022/08/20 11:37:20;;;;;;;15.30;14.00;;;;;;;;;;5078874;28;20452;-77
2022/08/20 11:39:47;;;;;;;15.67;14.27;;;;;;;;;;5073615;28;20487;-77
2022/08/20 11:42:13;;;;;;;17.87;16.17;;;;;;;;;;5082857;28;20423;-77
2022/08/20 11:44:40;;;;;;;16.77;15.27;;;;;;;;;;5089937;28;20515;-77
2022/08/20 11:47:07;;;;;;;17.17;15.67;;;;;;;;;;5063196;28;21012;-77
2022/08/20 11:49:35;;;;;;;15.43;14.03;;;;;;;;;;5072852;28;20455;-77
2022/08/20 11:52:02;;;;;;;17.80;16.30;;;;;;;;;;5083086;28;20447;-77
2022/08/20 11:54:31;;;;;;;16.70;15.00;;;;;;;;;;5073089;28;21082;-77
2022/08/20 11:56:58;;;;;;;17.17;15.53;;;;;;;;;;5072804;28;21044;-77
2022/08/20 11:59:25;;;;;;;17.30;15.50;;;;;;;;;;5076781;28;20521;-77
2022/08/20 12:01:53;;;;;;;15.57;14.17;;;;;;;;;;5070544;28;20806;-77
2022/08/20 12:04:35;;;;;;;17.37;15.67;;;;;;;;;;5072601;28;20417;-78
2022/08/20 12:07:06;;;;;;;15.90;14.50;;;;;;;;;;5075883;28;20435;-77
2022/08/20 12:09:33;;;;;;;17.80;16.20;;;;;;;;;;5072244;28;20458;-77
2022/08/20 12:11:59;;;;;;;18.23;16.43;;;;;;;;;;5072375;28;20595;-77
2022/08/20 12:14:26;;;;;;;17.23;15.83;;;;;;;;;;5072339;28;20416;-78
2022/08/20 12:16:52;;;;;;;16.63;15.23;;;;;;;;;;5060131;28;20473;-77
2022/08/20 12:19:19;;;;;;;19.37;17.60;;;;;;;;;;5092319;28;20542;-77
2022/08/20 12:21:46;;;;;;;17.40;15.70;;;;;;;;;;5074714;28;20427;-77
2022/08/20 12:24:12;;;;;;;17.40;15.90;;;;;;;;;;5073562;28;20459;-77
2022/08/20 12:26:39;;;;;;;17.70;16.00;;;;;;;;;;5072072;28;20498;-77
2022/08/20 12:29:06;;;;;;;18.10;15.47;;;;;;;;;;5047498;28;20468;-77
2022/08/20 12:31:32;;;;;;;18.30;16.60;;;;;;;;;;5082589;28;20424;-77
2022/08/20 12:33:59;;;;;;;18.33;16.63;;;;;;;;;;5092252;28;20436;-77
2022/08/20 12:36:25;;;;;;;16.77;15.23;;;;;;;;;;5073860;28;20471;-77
2022/08/20 12:38:52;;;;;;;15.83;14.27;;;;;;;;;;5080372;28;20479;-77
2022/08/20 12:41:18;;;;;;;14.30;13.20;;;;;;;;;;5077962;28;20486;-77
2022/08/20 12:43:45;;;;;;;15.20;14.00;;;;;;;;;;5081969;28;20935;-77
2022/08/20 12:46:11;;;;;;;17.37;15.87;;;;;;;;;;5091765;28;20506;-77
2022/08/20 12:48:38;;;;;;;16.00;14.57;;;;;;;;;;5082684;28;20530;-77
2022/08/20 12:51:04;;;;;;;16.60;15.10;;;;;;;;;;5071359;28;20498;-77
2022/08/20 12:53:31;;;;;;;13.83;12.53;;;;;;;;;;5087940;28;20440;-77
2022/08/20 12:56:02;;;;;;;14.77;13.57;;;;;;;;;;5072639;28;20432;-77
2022/08/20 12:58:28;;;;;;;15.70;14.20;;;;;;;;;;5088062;28;20468;-77
2022/08/20 13:00:55;;;;;;;15.43;13.97;;;;;;;;;;5071267;28;20456;-77
2022/08/20 13:03:21;;;;;;;17.77;16.07;;;;;;;;;;5072632;28;20767;-77
2022/08/20 13:05:48;;;;;;;14.30;13.20;;;;;;;;;;5071266;28;20463;-77
2022/08/20 13:08:16;;;;;;;14.77;13.47;;;;;;;;;;5074642;28;20436;-77
2022/08/20 13:10:44;;;;;;;14.97;13.77;;;;;;;;;;5078234;28;20489;-77
2022/08/20 13:13:12;;;;;;;14.80;13.60;;;;;;;;;;5082230;28;20433;-77
2022/08/20 13:15:39;;;;;;;15.77;14.37;;;;;;;;;;5074679;28;20451;-77
2022/08/20 13:18:06;;;;;;;13.87;12.63;;;;;;;;;;5103130;28;20538;-77
2022/08/20 13:20:33;;;;;;;13.63;12.43;;;;;;;;;;5092557;28;20420;-77
2022/08/20 13:23:01;;;;;;;12.90;11.70;;;;;;;;;;5064859;28;20435;-77
2022/08/20 13:25:27;;;;;;;13.77;12.30;;;;;;;;;;5085588;28;20843;-77
2022/08/20 13:27:56;;;;;;;13.53;12.13;;;;;;;;;;5078394;28;20462;-77
2022/08/20 13:30:22;;;;;;;13.70;12.50;;;;;;;;;;5090771;28;20463;-77
2022/08/20 13:32:49;;;;;;;14.40;13.00;;;;;;;;;;5091523;28;20429;-77
2022/08/20 13:35:16;;;;;;;14.40;13.00;;;;;;;;;;5072769;28;20447;-77
2022/08/20 13:37:43;;;;;;;12.40;11.50;;;;;;;;;;5054083;28;20885;-77
2022/08/20 13:40:10;;;;;;;13.63;12.50;;;;;;;;;;5072046;28;20453;-77
2022/08/20 13:42:37;;;;;;;14.33;13.03;;;;;;;;;;5054058;28;20476;-77
2022/08/20 13:45:04;;;;;;;13.70;12.60;;;;;;;;;;5080792;28;20446;-77
2022/08/20 13:47:34;;;;;;;12.73;11.83;;;;;;;;;;5065396;28;20557;-77
2022/08/20 13:50:04;;;;;;;14.93;13.63;;;;;;;;;;5070295;28;20543;-78
2022/08/20 13:52:31;;;;;;;14.37;13.17;;;;;;;;;;5070305;28;20437;-77
2022/08/20 13:54:58;;;;;;;14.27;12.90;;;;;;;;;;5070196;28;20436;-77
2022/08/20 13:57:24;;;;;;;13.93;12.70;;;;;;;;;;5056711;28;20457;-76
2022/08/20 13:59:53;;;;;;;15.80;13.90;;;;;;;;;;5070173;28;20481;-77
2022/08/20 14:02:19;;;;;;;14.80;13.60;;;;;;;;;;5070157;28;20474;-77
2022/08/20 14:04:47;;;;;;;15.03;13.80;;;;;;;;;;5069661;28;20421;-76
2022/08/20 14:07:16;;;;;;;17.63;16.00;;;;;;;;;;5074020;28;20459;-77
2022/08/20 14:09:45;;;;;;;15.30;14.10;;;;;;;;;;5070203;28;20436;-77
2022/08/20 14:12:12;;;;;;;15.63;14.23;;;;;;;;;;5053362;28;20432;-77
2022/08/20 14:14:39;;;;;;;17.80;16.10;;;;;;;;;;5077200;28;20437;-77
2022/08/20 14:17:19;;;;;;;16.57;14.80;;;;;;;;;;5067401;28;20425;-77
2022/08/20 14:19:46;;;;;;;18.50;16.83;;;;;;;;;;5070009;28;20457;-77
2022/08/20 14:22:13;;;;;;;15.60;14.23;;;;;;;;;;5053409;28;20531;-77
2022/08/20 14:24:40;;;;;;;16.63;15.03;;;;;;;;;;5070297;28;20502;-77
2022/08/20 14:27:07;;;;;;;17.53;16.03;;;;;;;;;;5053211;28;20943;-77
2022/08/20 14:29:35;;;;;;;17.63;16.17;;;;;;;;;;5057941;28;21051;-77
2022/08/20 14:32:02;;;;;;;16.97;15.47;;;;;;;;;;5044724;28;20519;-77
2022/08/20 14:34:29;;;;;;;17.80;16.20;;;;;;;;;;5078767;28;20429;-77
2022/08/20 14:36:56;;;;;;;16.10;14.60;;;;;;;;;;5071105;28;20430;-77
2022/08/20 14:39:24;;;;;;;17.20;15.70;;;;;;;;;;5082555;28;20529;-77
2022/08/20 14:41:50;;;;;;;18.00;16.30;;;;;;;;;;5070483;28;20452;-77
2022/08/20 14:44:17;;;;;;;16.60;15.20;;;;;;;;;;5070017;28;20468;-77